createdAt,value
2023-05-03T00:00:26.303Z,13.01
2023-05-03T00:01:29.504Z,20.69
2023-05-03T00:02:32.823Z,28.37
2023-05-03T00:03:36.130Z,28.37
2023-05-03T00:04:39.250Z,18.13
2023-05-03T00:05:42.550Z,13.01
2023-05-03T00:06:45.850Z,0
2023-05-03T00:07:49.120Z,13.01
2023-05-03T00:08:52.596Z,28.37
2023-05-03T00:09:56.050Z,30.93
2023-05-03T00:10:59.113Z,18.13
2023-05-03T00:12:01.526Z,15.57
2023-05-03T00:13:04.730Z,10.45
2023-05-03T00:14:08.047Z,7.89
2023-05-03T00:15:10.419Z,33.49
2023-05-03T00:16:12.750Z,30.93
2023-05-03T00:17:15.815Z,36.05
2023-05-03T00:18:19.330Z,30.93
2023-05-03T00:19:22.528Z,53.97
2023-05-03T00:20:25.810Z,61.65
2023-05-03T00:21:29.182Z,48.85
2023-05-03T00:22:32.406Z,43.73
2023-05-03T00:23:35.714Z,61.65
2023-05-03T00:24:38.947Z,41.17
2023-05-03T00:25:42.313Z,48.85
2023-05-03T00:26:45.539Z,46.29
2023-05-03T00:27:48.968Z,84.69
2023-05-03T00:28:52.035Z,87.25
2023-05-03T00:29:54.519Z,74.45
2023-05-03T00:30:57.744Z,64.21
2023-05-03T00:32:01.100Z,64.21
2023-05-03T00:33:04.231Z,64.21
2023-05-03T00:34:07.579Z,94.93
2023-05-03T00:35:10.929Z,74.45
2023-05-03T00:36:14.164Z,51.41
2023-05-03T00:37:16.590Z,53.97
2023-05-03T00:38:18.856Z,48.85
2023-05-03T00:39:21.154Z,51.41
2023-05-03T00:40:23.320Z,53.97
2023-05-03T00:41:25.741Z,64.21
2023-05-03T00:42:28.127Z,84.69
2023-05-03T00:43:31.441Z,89.81
2023-05-03T00:44:34.682Z,87.25
2023-05-03T00:45:37.979Z,61.65
2023-05-03T00:46:41.296Z,56.53
2023-05-03T00:47:44.555Z,64.21
2023-05-03T00:48:47.827Z,59.09
2023-05-03T00:49:51.009Z,43.73
2023-05-03T00:50:54.486Z,43.73
2023-05-03T00:51:57.581Z,61.65
2023-05-03T00:53:01.073Z,71.89
2023-05-03T00:54:04.292Z,84.69
2023-05-03T00:55:07.655Z,74.45
2023-05-03T00:56:09.912Z,82.13
2023-05-03T00:57:13.056Z,87.25
2023-05-03T00:58:16.526Z,84.69
2023-05-03T00:59:19.709Z,77.01
2023-05-03T01:00:22.930Z,74.45
2023-05-03T01:01:26.363Z,79.57
2023-05-03T01:02:29.522Z,74.45
2023-05-03T01:03:31.966Z,71.89
2023-05-03T01:04:34.287Z,71.89
2023-05-03T01:05:37.594Z,84.69
2023-05-03T01:06:39.746Z,84.69
2023-05-03T01:07:42.067Z,74.45
2023-05-03T01:08:45.475Z,94.93
2023-05-03T01:09:48.785Z,94.93
2023-05-03T01:10:52.019Z,94.93
2023-05-03T01:11:55.222Z,74.45
2023-05-03T01:12:58.501Z,56.53
2023-05-03T01:14:01.931Z,46.29
2023-05-03T01:15:05.170Z,20.69
2023-05-03T01:16:08.507Z,25.81
2023-05-03T01:17:11.673Z,30.93
2023-05-03T01:18:15.104Z,28.37
2023-05-03T01:19:18.359Z,33.49
2023-05-03T01:20:21.557Z,33.49
2023-05-03T01:21:23.897Z,43.73
2023-05-03T01:22:27.145Z,33.49
2023-05-03T01:23:30.501Z,33.49
2023-05-03T01:24:33.839Z,38.61
2023-05-03T01:25:37.134Z,23.25
2023-05-03T01:26:40.444Z,23.25
2023-05-03T01:27:43.736Z,33.49
2023-05-03T01:28:46.139Z,33.49
2023-05-03T01:29:48.398Z,33.49
2023-05-03T01:30:50.540Z,20.69
2023-05-03T01:31:52.928Z,28.37
2023-05-03T01:32:56.241Z,30.93
2023-05-03T01:33:59.420Z,15.57
2023-05-03T01:35:02.895Z,18.13
2023-05-03T01:36:06.194Z,18.13
2023-05-03T01:37:09.787Z,28.37
2023-05-03T01:38:12.977Z,28.37
2023-05-03T01:39:16.265Z,33.49
2023-05-03T01:40:19.577Z,28.37
2023-05-03T01:41:22.903Z,28.37
2023-05-03T01:42:26.233Z,30.93
2023-05-03T01:43:29.578Z,33.49
2023-05-03T01:44:32.894Z,43.73
2023-05-03T01:45:35.031Z,38.61
2023-05-03T01:46:38.475Z,53.97
2023-05-03T01:47:41.781Z,56.53
2023-05-03T01:48:45.058Z,64.21
2023-05-03T01:49:48.247Z,71.89
2023-05-03T01:50:51.695Z,71.89
2023-05-03T01:51:54.949Z,69.33
2023-05-03T01:52:57.166Z,61.65
2023-05-03T01:53:59.401Z,56.53
2023-05-03T01:55:01.794Z,69.33
2023-05-03T01:56:04.158Z,84.69
2023-05-03T01:57:07.344Z,89.81
2023-05-03T01:58:10.765Z,94.93
2023-05-03T01:59:14.043Z,92.37
2023-05-03T02:00:17.204Z,87.25
2023-05-03T02:01:20.596Z,87.25
2023-05-03T02:02:23.861Z,84.69
2023-05-03T02:03:27.082Z,87.25
2023-05-03T02:04:30.421Z,87.25
2023-05-03T02:05:33.800Z,89.81
2023-05-03T02:06:37.168Z,94.93
2023-05-03T02:07:40.388Z,102.61
2023-05-03T02:08:43.705Z,102.61
2023-05-03T02:09:45.987Z,94.93
2023-05-03T02:10:49.141Z,112.85
2023-05-03T02:11:52.611Z,123.09
2023-05-03T02:12:55.731Z,117.97
2023-05-03T02:15:02.353Z,128.21
2023-05-03T02:16:05.615Z,156.37
2023-05-03T02:17:08.962Z,130.77
2023-05-03T02:18:11.222Z,143.57
2023-05-03T02:19:13.512Z,138.45
2023-05-03T02:20:15.897Z,125.65
2023-05-03T02:21:18.280Z,130.77
2023-05-03T02:22:21.415Z,130.77
2023-05-03T02:23:24.840Z,135.89
2023-05-03T02:24:28.117Z,146.13
2023-05-03T02:25:31.381Z,138.45
2023-05-03T02:26:34.630Z,138.45
2023-05-03T02:27:37.979Z,141.01
2023-05-03T02:28:41.252Z,143.57
2023-05-03T02:30:47.816Z,123.09
2023-05-03T02:31:51.120Z,148.69
2023-05-03T02:32:54.322Z,146.13
2023-05-03T02:33:57.618Z,148.69
2023-05-03T02:35:00.058Z,153.81
2023-05-03T02:36:03.223Z,161.49
2023-05-03T02:37:06.558Z,153.81
2023-05-03T02:38:10.227Z,153.81
2023-05-03T02:39:13.466Z,174.29
2023-05-03T02:41:20.034Z,176.85
2023-05-03T02:42:22.393Z,176.85
2023-05-03T02:43:24.540Z,184.53
2023-05-03T02:44:27.980Z,194.77
2023-05-03T02:45:31.213Z,199.89
2023-05-03T02:46:34.411Z,197.33
2023-05-03T02:47:37.683Z,189.65
2023-05-03T02:48:40.992Z,205.01
2023-05-03T02:49:44.430Z,202.45
2023-05-03T02:50:47.648Z,189.65
2023-05-03T02:51:50.981Z,184.53
2023-05-03T02:52:54.228Z,189.65
2023-05-03T02:53:56.600Z,197.33
2023-05-03T02:54:58.758Z,187.09
2023-05-03T02:56:02.041Z,210.13
2023-05-03T02:57:05.354Z,215.25
2023-05-03T02:58:08.824Z,210.13
2023-05-03T02:59:12.059Z,202.45
2023-05-03T03:00:15.379Z,207.57
2023-05-03T03:01:18.570Z,184.53
2023-05-03T03:02:21.963Z,179.41
2023-05-03T03:03:25.157Z,184.53
2023-05-03T03:04:28.504Z,174.29
2023-05-03T03:05:31.722Z,164.05
2023-05-03T03:07:38.272Z,130.77
2023-05-03T03:08:40.773Z,125.65
2023-05-03T03:09:43.971Z,115.41
2023-05-03T03:10:47.158Z,117.97
2023-05-03T03:11:50.555Z,112.85
2023-05-03T03:12:53.898Z,110.29
2023-05-03T03:13:57.050Z,105.17
2023-05-03T03:15:00.434Z,102.61
2023-05-03T03:16:03.694Z,0
2023-05-03T03:17:06.011Z,89.81
2023-05-03T03:18:08.239Z,82.13
2023-05-03T03:19:10.563Z,84.69
2023-05-03T03:20:13.277Z,94.93
2023-05-03T03:21:16.747Z,87.25
2023-05-03T03:22:20.019Z,82.13
2023-05-03T03:23:23.354Z,84.69
2023-05-03T03:24:26.461Z,74.45
2023-05-03T03:25:29.784Z,79.57
2023-05-03T03:26:33.173Z,79.57
2023-05-03T03:27:36.444Z,79.57
2023-05-03T03:28:39.664Z,82.13
2023-05-03T03:29:41.952Z,77.01
2023-05-03T03:30:45.341Z,87.25
2023-05-03T03:31:48.550Z,105.17
2023-05-03T03:32:51.927Z,89.81
2023-05-03T03:33:55.257Z,89.81
2023-05-03T03:34:58.493Z,97.49
2023-05-03T03:36:01.678Z,112.85
2023-05-03T03:37:04.977Z,100.05
2023-05-03T03:38:08.269Z,100.05
2023-05-03T03:39:11.640Z,117.97
2023-05-03T03:40:14.859Z,120.53
2023-05-03T03:41:17.336Z,120.53
2023-05-03T03:42:19.510Z,105.17
2023-05-03T03:43:21.922Z,117.97
2023-05-03T03:44:24.094Z,105.17
2023-05-03T03:45:27.382Z,125.65
2023-05-03T03:46:30.770Z,120.53
2023-05-03T03:47:34.040Z,115.41
2023-05-03T03:48:37.350Z,105.17
2023-05-03T03:49:40.588Z,110.29
2023-05-03T03:50:43.845Z,105.17
2023-05-03T03:51:47.266Z,112.85
2023-05-03T03:52:50.518Z,123.09
2023-05-03T03:53:53.726Z,105.17
2023-05-03T03:54:57.158Z,100.05
2023-05-03T03:56:00.456Z,102.61
2023-05-03T03:57:03.709Z,105.17
2023-05-03T03:58:05.926Z,117.97
2023-05-03T03:59:09.190Z,128.21
2023-05-03T04:00:12.654Z,128.21
2023-05-03T04:01:15.955Z,130.77
2023-05-03T04:02:19.197Z,128.21
2023-05-03T04:03:22.384Z,130.77
2023-05-03T04:04:25.728Z,133.33
2023-05-03T04:05:28.070Z,130.77
2023-05-03T04:06:30.381Z,130.77
2023-05-03T04:07:32.697Z,138.45
2023-05-03T04:08:35.132Z,143.57
2023-05-03T04:09:38.219Z,146.13
2023-05-03T04:10:41.546Z,138.45
2023-05-03T04:11:44.831Z,128.21
2023-05-03T04:12:48.066Z,123.09
2023-05-03T04:13:51.449Z,117.97
2023-05-03T04:14:54.648Z,125.65
2023-05-03T04:15:58.082Z,110.29
2023-05-03T04:17:01.408Z,128.21
2023-05-03T04:18:04.634Z,115.41
2023-05-03T04:19:07.816Z,123.09
2023-05-03T04:20:11.182Z,102.61
2023-05-03T04:21:14.429Z,110.29
2023-05-03T04:22:16.741Z,125.65
2023-05-03T04:23:20.122Z,130.77
2023-05-03T04:24:23.428Z,128.21
2023-05-03T04:25:26.663Z,125.65
2023-05-03T04:26:29.971Z,120.53
2023-05-03T04:27:33.252Z,135.89
2023-05-03T04:28:36.558Z,123.09
2023-05-03T04:29:38.929Z,141.01
2023-05-03T04:30:41.162Z,135.89
2023-05-03T04:31:43.385Z,146.13
2023-05-03T04:32:45.748Z,125.65
2023-05-03T04:33:49.014Z,130.77
2023-05-03T04:34:52.275Z,117.97
2023-05-03T04:35:55.646Z,130.77
2023-05-03T04:36:58.877Z,128.21
2023-05-03T04:38:02.148Z,120.53
2023-05-03T04:39:05.564Z,120.53
2023-05-03T04:40:08.898Z,120.53
2023-05-03T04:41:12.151Z,141.01
2023-05-03T04:42:15.408Z,138.45
2023-05-03T04:43:18.750Z,143.57
2023-05-03T04:44:22.110Z,148.69
2023-05-03T04:45:25.199Z,156.37
2023-05-03T04:46:27.509Z,153.81
2023-05-03T04:47:30.917Z,148.69
2023-05-03T04:48:34.167Z,120.53
2023-05-03T04:49:37.385Z,115.41
2023-05-03T04:50:40.851Z,115.41
2023-05-03T04:51:44.037Z,115.41
2023-05-03T04:52:47.387Z,102.61
2023-05-03T04:53:49.799Z,94.93
2023-05-03T04:54:52.060Z,84.69
2023-05-03T04:55:54.321Z,89.81
2023-05-03T04:56:56.497Z,100.05
2023-05-03T04:57:59.784Z,110.29
2023-05-03T04:59:03.080Z,112.85
2023-05-03T05:00:06.389Z,115.41
2023-05-03T05:01:09.733Z,120.53
2023-05-03T05:02:13.045Z,115.41
2023-05-03T05:03:16.277Z,92.37
2023-05-03T05:04:19.625Z,94.93
2023-05-03T05:05:22.843Z,94.93
2023-05-03T05:06:26.265Z,82.13
2023-05-03T05:07:29.422Z,84.69
2023-05-03T05:08:32.925Z,84.69
2023-05-03T05:09:36.201Z,92.37
2023-05-03T05:10:38.454Z,87.25
2023-05-03T05:11:41.760Z,92.37
2023-05-03T05:12:44.960Z,87.25
2023-05-03T05:13:48.212Z,87.25
2023-05-03T05:14:51.656Z,87.25
2023-05-03T05:15:54.766Z,84.69
2023-05-03T05:16:58.197Z,84.69
2023-05-03T05:18:00.530Z,94.93
2023-05-03T05:19:02.673Z,100.05
2023-05-03T05:20:05.173Z,92.37
2023-05-03T05:22:10.596Z,79.57
2023-05-03T05:23:14.284Z,87.25
2023-05-03T05:24:17.484Z,92.37
2023-05-03T05:25:20.758Z,0
2023-05-03T05:26:24.056Z,120.53
2023-05-03T05:27:27.392Z,100.05
2023-05-03T05:28:30.645Z,105.17
2023-05-03T05:29:34.093Z,105.17
2023-05-03T05:30:37.368Z,107.73
2023-05-03T05:31:40.646Z,110.29
2023-05-03T05:32:43.957Z,107.73
2023-05-03T05:33:47.293Z,107.73
2023-05-03T05:34:49.410Z,158.93
2023-05-03T05:35:52.806Z,135.89
2023-05-03T05:36:56.148Z,146.13
2023-05-03T05:37:59.381Z,169.17
2023-05-03T05:39:02.749Z,130.77
2023-05-03T05:40:05.993Z,146.13
2023-05-03T05:41:09.337Z,169.17
2023-05-03T05:42:12.463Z,202.45
2023-05-03T05:43:14.946Z,56.53
2023-05-03T05:44:17.165Z,-122.68
2023-05-03T05:45:20.480Z,107.73
2023-05-03T05:46:22.743Z,199.89
2023-05-03T05:48:28.284Z,266.45
2023-05-03T05:49:31.574Z,286.93
2023-05-03T05:50:34.839Z,299.73
2023-05-03T05:51:38.286Z,248.53
2023-05-03T05:52:41.560Z,317.65
2023-05-03T05:53:44.803Z,-281.39
2023-05-03T05:54:48.088Z,317.65
2023-05-03T05:55:51.319Z,-135.47
2023-05-03T05:56:54.817Z,-196.91
2023-05-03T05:57:58.125Z,245.97
2023-05-03T05:59:01.191Z,-20.28
2023-05-03T06:00:04.543Z,-43.32
2023-05-03T06:01:06.864Z,30.93
2023-05-03T06:02:10.107Z,23.25
2023-05-03T06:03:13.426Z,133.33
2023-05-03T06:04:16.770Z,151.25
2023-05-03T06:05:19.962Z,164.05
2023-05-03T06:06:23.298Z,176.85
2023-05-03T06:07:26.759Z,164.05
2023-05-03T06:08:29.878Z,156.37
2023-05-03T06:09:32.162Z,146.13
2023-05-03T06:10:34.602Z,123.09
2023-05-03T06:11:36.813Z,146.13
2023-05-03T06:12:39.070Z,179.41
2023-05-03T06:13:42.486Z,169.17
2023-05-03T06:14:45.677Z,169.17
2023-05-03T06:15:49.096Z,171.73
2023-05-03T06:16:53.009Z,187.09
2023-05-03T06:17:55.597Z,199.89
2023-05-03T06:18:58.837Z,233.17
2023-05-03T06:20:02.328Z,202.45
2023-05-03T06:21:05.578Z,245.97
2023-05-03T06:22:08.703Z,212.69
2023-05-03T06:23:11.988Z,245.97
2023-05-03T06:24:15.288Z,253.65
2023-05-03T06:25:18.767Z,269.01
2023-05-03T06:26:21.061Z,251.09
2023-05-03T06:27:24.359Z,302.29
2023-05-03T06:28:27.533Z,315.09
2023-05-03T06:29:30.814Z,-301.87
2023-05-03T06:30:34.070Z,-263.47
2023-05-03T06:31:37.471Z,-276.27
2023-05-03T06:32:40.711Z,-237.87
2023-05-03T06:33:42.959Z,-283.95
2023-05-03T06:34:45.259Z,-327.47
2023-05-03T06:35:47.584Z,0
2023-05-03T06:36:49.952Z,0
2023-05-03T06:37:53.286Z,269.01
2023-05-03T06:38:56.469Z,-222.51
2023-05-03T06:39:59.836Z,-109.87
2023-05-03T06:41:03.334Z,-209.71
2023-05-03T06:42:06.352Z,171.73
2023-05-03T06:43:09.693Z,-35.64
2023-05-03T06:44:13.027Z,-117.56
2023-05-03T06:45:16.369Z,43.73
2023-05-03T06:46:19.534Z,48.85
2023-05-03T06:47:22.938Z,-163.64
2023-05-03T06:48:26.093Z,248.52
2023-05-03T06:49:29.540Z,-273.72
2023-05-03T06:50:31.703Z,-132.92
2023-05-03T06:51:35.114Z,-189.24
2023-05-03T06:52:38.299Z,-94.52
2023-05-03T06:53:41.698Z,15.57
2023-05-03T06:54:44.966Z,-12.6
2023-05-03T06:55:48.309Z,5.33
2023-05-03T06:56:51.471Z,30.93
2023-05-03T06:57:53.922Z,77.01
2023-05-03T06:58:56.081Z,36.05
2023-05-03T06:59:58.411Z,43.73
2023-05-03T07:01:00.836Z,2.77
2023-05-03T07:02:04.065Z,46.29
2023-05-03T07:03:07.387Z,38.61
2023-05-03T07:04:10.732Z,43.73
2023-05-03T07:05:13.877Z,51.41
2023-05-03T07:06:17.243Z,23.25
2023-05-03T07:07:20.498Z,23.25
2023-05-03T07:08:23.793Z,28.37
2023-05-03T07:09:27.117Z,0
2023-05-03T07:10:30.342Z,28.37
2023-05-03T07:11:33.643Z,33.49
2023-05-03T07:12:36.915Z,30.93
2023-05-03T07:13:40.269Z,41.17
2023-05-03T07:14:42.573Z,46.29
2023-05-03T07:15:45.926Z,71.89
2023-05-03T07:16:49.263Z,38.61
2023-05-03T07:17:52.465Z,46.29
2023-05-03T07:18:55.799Z,48.85
2023-05-03T07:19:59.034Z,66.77
2023-05-03T07:21:02.328Z,-63.8
2023-05-03T07:22:04.881Z,5.33
2023-05-03T07:23:06.887Z,61.65
2023-05-03T07:24:10.247Z,46.29
2023-05-03T07:25:12.515Z,-22.84
2023-05-03T07:26:14.851Z,38.61
2023-05-03T07:27:18.151Z,-33.08
2023-05-03T07:28:21.515Z,-97.08
2023-05-03T07:29:24.753Z,-222.52
2023-05-03T07:30:28.018Z,-196.92
2023-05-03T07:31:31.390Z,-212.28
2023-05-03T07:32:34.657Z,-158.52
2023-05-03T07:33:37.960Z,-207.16
2023-05-03T07:34:41.296Z,-222.52
2023-05-03T07:35:44.612Z,-207.16
2023-05-03T07:36:47.757Z,-245.56
2023-05-03T07:37:51.237Z,-304.44
2023-05-03T07:38:54.350Z,-258.36
2023-05-03T07:39:56.649Z,-260.92
2023-05-03T07:40:59.991Z,-273.72
2023-05-03T07:42:03.269Z,320.2
2023-05-03T07:43:06.699Z,322.76
2023-05-03T07:44:09.829Z,210.12
2023-05-03T07:45:13.216Z,184.52
2023-05-03T07:46:16.479Z,123.08
2023-05-03T07:47:18.777Z,30.92
2023-05-03T07:48:21.047Z,33.48
2023-05-03T07:49:23.472Z,53.96
2023-05-03T07:50:25.647Z,51.4
2023-05-03T07:51:29.044Z,46.28
2023-05-03T07:52:32.305Z,25.8
2023-05-03T07:53:35.655Z,-22.85
2023-05-03T07:54:38.889Z,-10.05
2023-05-03T07:55:42.109Z,-51.01
2023-05-03T07:56:45.469Z,-66.37
2023-05-03T07:57:48.706Z,-61.25
2023-05-03T07:58:52.168Z,-45.89
2023-05-03T07:59:55.263Z,-99.65
2023-05-03T08:00:58.564Z,-97.09
2023-05-03T08:02:01.871Z,-166.21
2023-05-03T08:03:05.158Z,-148.29
2023-05-03T08:04:07.575Z,-155.97
2023-05-03T08:05:10.751Z,-184.13
2023-05-03T08:06:14.115Z,-214.85
2023-05-03T08:07:17.427Z,-268.61
2023-05-03T08:08:20.644Z,-248.13
2023-05-03T08:09:23.968Z,-258.37
2023-05-03T08:10:27.220Z,-283.97
2023-05-03T08:11:29.525Z,-301.89
2023-05-03T08:12:31.904Z,-324.93
2023-05-03T08:13:34.145Z,-294.21
2023-05-03T08:14:36.464Z,-294.21
2023-05-03T08:15:40.019Z,325.31
2023-05-03T08:16:43.136Z,271.55
2023-05-03T08:17:46.337Z,228.03
2023-05-03T08:18:49.683Z,258.75
2023-05-03T08:19:52.998Z,281.79
2023-05-03T08:20:56.391Z,271.55
2023-05-03T08:21:59.631Z,220.35
2023-05-03T08:23:02.961Z,207.55
2023-05-03T08:24:06.176Z,199.87
2023-05-03T08:25:09.432Z,189.63
2023-05-03T08:26:12.742Z,199.87
2023-05-03T08:27:16.071Z,171.71
2023-05-03T08:28:18.274Z,181.95
2023-05-03T08:29:21.617Z,184.51
2023-05-03T08:30:24.954Z,117.95
2023-05-03T08:31:28.305Z,84.67
2023-05-03T08:32:31.503Z,56.51
2023-05-03T08:33:34.847Z,56.51
2023-05-03T08:34:38.102Z,15.55
2023-05-03T08:35:40.407Z,-2.38
2023-05-03T08:36:42.891Z,48.83
2023-05-03T08:37:45.932Z,71.87
2023-05-03T08:38:49.239Z,23.23
2023-05-03T08:39:52.669Z,30.91
2023-05-03T08:40:55.964Z,-283.98
2023-05-03T08:41:59.232Z,268.98
2023-05-03T08:43:02.389Z,-266.06
2023-05-03T08:44:05.876Z,-102.22
2023-05-03T08:45:09.030Z,-15.18
2023-05-03T08:46:12.518Z,69.31
2023-05-03T08:47:15.761Z,33.47
2023-05-03T08:48:19.022Z,92.35
2023-05-03T08:49:22.353Z,-38.22
2023-05-03T08:50:24.605Z,-148.3
2023-05-03T08:51:27.882Z,-135.5
2023-05-03T08:52:31.327Z,-117.58
2023-05-03T08:53:34.465Z,-86.86
2023-05-03T08:54:37.762Z,-35.66
2023-05-03T08:55:41.041Z,-91.98
2023-05-03T08:56:44.341Z,-117.58
2023-05-03T08:57:46.651Z,-2.38
2023-05-03T08:58:49.102Z,-89.42
2023-05-03T08:59:51.407Z,-176.46
2023-05-03T09:00:53.595Z,-186.7
2023-05-03T09:01:55.883Z,309.94
2023-05-03T09:02:58.261Z,-235.34
2023-05-03T09:04:01.600Z,-150.86
2023-05-03T09:05:04.804Z,-76.62
2023-05-03T09:06:08.279Z,-45.9
2023-05-03T09:07:11.436Z,-291.66
2023-05-03T09:08:14.810Z,-304.46
2023-05-03T09:09:17.978Z,-283.98
2023-05-03T09:10:21.298Z,-243.02
2023-05-03T09:11:24.613Z,-202.06
2023-05-03T09:12:27.822Z,-179.02
2023-05-03T09:13:31.151Z,-171.34
2023-05-03T09:14:34.455Z,-145.74
2023-05-03T09:15:37.905Z,-140.62
2023-05-03T09:16:40.030Z,-140.62
2023-05-03T09:17:43.378Z,-132.94
2023-05-03T09:18:46.601Z,-117.58
2023-05-03T09:19:49.882Z,-97.1
2023-05-03T09:20:53.434Z,-79.18
2023-05-03T09:21:56.601Z,-68.94
2023-05-03T09:22:59.867Z,-61.26
2023-05-03T09:24:02.216Z,-56.14
2023-05-03T09:25:04.453Z,-91.98
2023-05-03T09:26:06.697Z,-135.5
2023-05-03T09:27:09.132Z,-202.06
2023-05-03T09:28:12.778Z,-304.46
2023-05-03T09:29:15.985Z,-263.5
2023-05-03T09:30:19.216Z,-276.3
2023-05-03T09:31:22.518Z,-307.02
2023-05-03T09:32:26.024Z,-304.46
2023-05-03T09:33:29.256Z,-296.78
2023-05-03T09:34:32.563Z,41.35
2023-05-03T09:35:35.794Z,-199.5
2023-05-03T09:36:39.164Z,-161.1
2023-05-03T09:37:42.301Z,-109.9
2023-05-03T09:38:45.752Z,-81.74
2023-05-03T09:39:48.955Z,-58.7
2023-05-03T09:40:51.204Z,-22.86
2023-05-03T09:41:54.509Z,7.87
2023-05-03T09:42:57.793Z,33.47
2023-05-03T09:44:01.074Z,43.71
2023-05-03T09:46:07.690Z,56.51
2023-05-03T09:47:10.949Z,15.55
2023-05-03T09:48:14.268Z,-53.58
2023-05-03T09:49:16.533Z,-33.1
2023-05-03T09:50:18.926Z,-7.5
2023-05-03T09:51:22.277Z,28.35
2023-05-03T09:52:24.566Z,51.39
2023-05-03T09:53:26.740Z,87.23
2023-05-03T09:54:30.202Z,66.75
2023-05-03T09:55:33.510Z,23.23
2023-05-03T09:56:36.790Z,5.31
2023-05-03T09:57:40.103Z,-35.66
2023-05-03T09:58:43.319Z,-15.18
2023-05-03T09:59:46.663Z,2.75
2023-05-03T10:00:49.841Z,20.67
2023-05-03T10:01:53.163Z,53.95
2023-05-03T10:02:56.523Z,71.87
2023-05-03T10:03:59.764Z,102.59
2023-05-03T10:05:03.078Z,97.47
2023-05-03T10:06:06.363Z,36.03
2023-05-03T10:07:08.754Z,5.31
2023-05-03T10:08:12.060Z,-35.66
2023-05-03T10:09:15.154Z,-81.74
2023-05-03T10:10:18.472Z,-48.46
2023-05-03T10:11:21.820Z,-20.3
2023-05-03T10:12:25.040Z,10.43
2023-05-03T10:13:28.312Z,28.35
2023-05-03T10:14:30.626Z,69.31
2023-05-03T10:15:33.095Z,66.75
2023-05-03T10:16:35.370Z,76.99
2023-05-03T10:17:37.680Z,94.91
2023-05-03T10:18:40.903Z,130.75
2023-05-03T10:19:44.290Z,169.15
2023-05-03T10:20:47.478Z,0
2023-05-03T10:21:50.943Z,204.99
2023-05-03T10:22:54.009Z,197.31
2023-05-03T10:23:57.394Z,187.07
2023-05-03T10:25:00.696Z,115.39
2023-05-03T10:26:03.990Z,36.03
2023-05-03T10:27:07.335Z,-61.26
2023-05-03T10:28:10.583Z,-74.06
2023-05-03T10:29:13.795Z,-63.82
2023-05-03T10:30:17.056Z,-4.94
2023-05-03T10:31:19.467Z,-2.38
2023-05-03T10:32:21.789Z,-10.06
2023-05-03T10:33:24.992Z,7.87
2023-05-03T10:34:28.359Z,-12.62
2023-05-03T10:35:31.650Z,-43.34
2023-05-03T10:36:34.922Z,-58.7
2023-05-03T10:37:38.129Z,-38.22
2023-05-03T10:38:40.578Z,-84.3
2023-05-03T10:39:42.885Z,-45.9
2023-05-03T10:40:45.209Z,-43.34
2023-05-03T10:41:47.368Z,5.31
2023-05-03T10:42:50.745Z,36.03
2023-05-03T10:43:53.951Z,69.31
2023-05-03T10:44:57.270Z,120.51
2023-05-03T10:46:00.548Z,123.07
2023-05-03T10:47:03.813Z,146.11
2023-05-03T10:48:07.118Z,161.47
2023-05-03T10:49:10.418Z,161.47
2023-05-03T10:50:13.679Z,143.55
2023-05-03T10:51:16.995Z,143.55
2023-05-03T10:52:20.506Z,148.67
2023-05-03T10:53:23.722Z,164.03
2023-05-03T10:54:26.927Z,181.95
2023-05-03T10:55:29.214Z,156.35
2023-05-03T10:56:32.539Z,164.03
2023-05-03T10:57:35.854Z,179.39
2023-05-03T10:58:39.060Z,194.75
2023-05-03T10:59:42.350Z,210.11
2023-05-03T11:00:45.637Z,243.39
2023-05-03T11:01:48.927Z,251.07
2023-05-03T11:02:51.267Z,210.11
2023-05-03T11:03:53.549Z,125.63
2023-05-03T11:04:55.861Z,120.51
2023-05-03T11:05:58.206Z,128.19
2023-05-03T11:07:01.458Z,161.47
2023-05-03T11:08:04.751Z,189.63
2023-05-03T11:09:08.053Z,192.19
2023-05-03T11:10:11.401Z,158.91
2023-05-03T11:11:14.636Z,164.03
2023-05-03T11:12:17.966Z,120.51
2023-05-03T11:13:21.195Z,107.71
2023-05-03T11:14:24.563Z,43.71
2023-05-03T11:15:27.860Z,74.43
2023-05-03T11:16:31.078Z,115.39
2023-05-03T11:17:34.426Z,156.35
2023-05-03T11:18:37.690Z,199.87
2023-05-03T11:19:40.000Z,243.39
2023-05-03T11:20:43.311Z,261.31
2023-05-03T11:21:46.590Z,276.67
2023-05-03T11:22:50.036Z,263.87
2023-05-03T11:23:53.359Z,256.19
2023-05-03T11:24:56.503Z,268.99
2023-05-03T11:25:59.830Z,281.79
2023-05-03T11:27:02.796Z,274.11
2023-05-03T11:28:04.422Z,263.87
2023-05-03T11:29:07.650Z,212.67
2023-05-03T11:30:10.927Z,158.91
2023-05-03T11:31:14.223Z,153.79
2023-05-03T11:32:17.595Z,179.39
2023-05-03T11:33:20.917Z,207.55
2023-05-03T11:34:24.138Z,243.39
2023-05-03T11:35:27.431Z,281.79
2023-05-03T11:36:30.743Z,320.19
2023-05-03T11:37:34.112Z,-286.53
2023-05-03T11:38:37.366Z,-260.93
2023-05-03T11:39:40.550Z,-237.89
2023-05-03T11:40:43.916Z,-230.21
2023-05-03T11:41:46.166Z,-219.97
2023-05-03T11:42:49.555Z,-217.41
2023-05-03T11:43:52.785Z,-212.29
2023-05-03T11:44:56.173Z,-222.53
2023-05-03T11:45:59.354Z,-212.29
2023-05-03T11:47:02.612Z,-207.17
2023-05-03T11:48:05.911Z,-209.73
2023-05-03T11:49:08.262Z,-219.97
2023-05-03T11:50:10.529Z,-219.97
2023-05-03T11:51:13.823Z,-219.97
2023-05-03T11:52:17.214Z,-281.41
2023-05-03T11:53:20.491Z,-253.25
2023-05-03T11:54:23.718Z,-232.77
2023-05-03T11:55:27.045Z,-212.29
2023-05-03T11:56:30.309Z,-194.37
2023-05-03T11:57:33.750Z,-189.25
2023-05-03T11:58:36.863Z,-184.13
2023-05-03T11:59:40.169Z,-189.25
2023-05-03T12:00:43.464Z,-204.61
2023-05-03T12:01:46.901Z,-199.49
2023-05-03T12:02:50.172Z,-199.49
2023-05-03T12:03:52.418Z,-189.25
2023-05-03T12:04:55.629Z,-189.25
2023-05-03T12:05:59.130Z,-194.37
2023-05-03T12:07:02.227Z,-207.17
2023-05-03T12:08:05.554Z,-214.85
2023-05-03T12:09:08.810Z,-230.21
2023-05-03T12:10:12.102Z,-240.45
2023-05-03T12:11:14.436Z,-230.21
2023-05-03T12:12:16.829Z,-179.01
2023-05-03T12:13:19.039Z,-155.97
2023-05-03T12:14:21.351Z,-145.73
2023-05-03T12:15:23.777Z,-140.61
2023-05-03T12:16:26.036Z,-135.49
2023-05-03T12:17:29.304Z,-125.25
2023-05-03T12:18:32.551Z,-107.33
2023-05-03T12:19:35.854Z,-112.45
2023-05-03T12:20:39.161Z,-99.65
2023-05-03T12:21:42.446Z,-109.89
2023-05-03T12:22:45.719Z,-104.77
2023-05-03T12:23:49.061Z,-102.21
2023-05-03T12:24:52.405Z,-97.09
2023-05-03T12:25:55.678Z,-97.09
2023-05-03T12:26:58.978Z,-94.53
2023-05-03T12:28:02.255Z,-84.29
2023-05-03T12:29:05.488Z,-89.41
2023-05-03T12:30:07.775Z,-91.97
2023-05-03T12:31:11.063Z,-97.09
2023-05-03T12:32:14.360Z,-120.13
2023-05-03T12:33:17.659Z,-120.13
2023-05-03T12:34:21.071Z,-143.17
2023-05-03T12:35:24.300Z,-120.13
2023-05-03T12:36:27.537Z,-115.01
2023-05-03T12:37:29.837Z,-122.69
2023-05-03T12:38:32.227Z,-125.25
2023-05-03T12:39:34.531Z,-125.25
2023-05-03T12:40:36.764Z,-122.69
2023-05-03T12:41:40.064Z,-122.69
2023-05-03T12:42:43.346Z,0
2023-05-03T12:43:46.642Z,-102.21
2023-05-03T12:44:49.949Z,-107.33
2023-05-03T12:45:53.354Z,0
2023-05-03T12:46:56.515Z,-109.89
2023-05-03T12:47:59.818Z,-112.45
2023-05-03T12:49:03.133Z,-102.21
2023-05-03T12:50:06.441Z,0
2023-05-03T12:51:09.834Z,-107.33
2023-05-03T12:52:12.986Z,-109.89
2023-05-03T12:53:16.281Z,-109.89
2023-05-03T12:54:19.960Z,-84.29
2023-05-03T12:55:22.275Z,-91.97
2023-05-03T12:56:25.562Z,-89.41
2023-05-03T12:57:28.910Z,-104.77
2023-05-03T12:58:32.185Z,-102.21
2023-05-03T12:59:35.437Z,-94.53
2023-05-03T13:00:38.733Z,-81.73
2023-05-03T13:01:41.079Z,-89.41
2023-05-03T13:02:43.414Z,-68.93
2023-05-03T13:03:45.690Z,-71.49
2023-05-03T13:04:48.056Z,-61.25
2023-05-03T13:05:51.262Z,-71.49
2023-05-03T13:06:54.552Z,-53.57
2023-05-03T13:07:58.002Z,-56.13
2023-05-03T13:09:01.158Z,-61.25
2023-05-03T13:10:04.555Z,-43.33
2023-05-03T13:11:07.718Z,-43.33
2023-05-03T13:12:11.003Z,-56.13
2023-05-03T13:13:14.351Z,-45.89
2023-05-03T13:14:17.706Z,-51.01
2023-05-03T13:15:20.897Z,-53.57
2023-05-03T13:17:27.571Z,-66.37
2023-05-03T13:18:29.770Z,-56.13
2023-05-03T13:19:33.059Z,-43.33
2023-05-03T13:20:36.360Z,-56.13
2023-05-03T13:21:39.658Z,-51.01